Time;durP1;ratioP1;P1;durP2;ratioP2;P2;SDS_P1;SDS_P2;PMS_P1;PMS_P2;Temp;Humidity;BMP_temperature;BMP_pressure;BME280_temperature;BME280_humidity;BME280_pressure;Samples;Min_cycle;Max_cycle;Signal;HPM_P1;HPM_P2
2022/07/11 00:01:49;;;;;;;9.48;2.50;;;;;;;;;;5133536;27;20043;-68
2022/07/11 00:04:15;;;;;;;7.07;2.80;;;;;;;;;;5134045;27;20051;-68
2022/07/11 00:06:41;;;;;;;7.97;3.17;;;;;;;;;;5134841;27;20119;-68
2022/07/11 00:09:07;;;;;;;7.43;2.90;;;;;;;;;;5134874;27;20047;-68
2022/07/11 00:11:33;;;;;;;4.60;2.50;;;;;;;;;;5132692;27;20180;-68
2022/07/11 00:13:59;;;;;;;9.23;3.13;;;;;;;;;;5134717;27;20042;-68
2022/07/11 00:16:25;;;;;;;7.07;3.53;;;;;;;;;;5134612;27;20438;-70
2022/07/11 00:18:52;;;;;;;6.47;3.35;;;;;;;;;;5133906;27;20484;-69
2022/07/11 00:21:19;;;;;;;6.57;3.10;;;;;;;;;;5134040;27;20113;-69
2022/07/11 00:23:45;;;;;;;9.15;3.72;;;;;;;;;;5134768;27;20078;-69
2022/07/11 00:26:11;;;;;;;9.30;3.55;;;;;;;;;;5123406;27;20087;-69
2022/07/11 00:28:37;;;;;;;7.70;3.75;;;;;;;;;;5113836;28;20039;-69
2022/07/11 00:31:03;;;;;;;6.82;3.53;;;;;;;;;;5113704;28;20695;-69
2022/07/11 00:33:29;;;;;;;6.13;3.30;;;;;;;;;;5111806;28;20127;-69
2022/07/11 00:35:55;;;;;;;7.28;3.28;;;;;;;;;;5113868;28;20063;-69
2022/07/11 00:38:21;;;;;;;10.20;3.65;;;;;;;;;;5113817;28;20119;-69
2022/07/11 00:40:47;;;;;;;7.43;3.03;;;;;;;;;;5112841;28;20040;-69
2022/07/11 00:43:13;;;;;;;5.25;2.85;;;;;;;;;;5113452;28;20047;-69
2022/07/11 00:45:39;;;;;;;5.72;2.60;;;;;;;;;;5113579;28;20035;-69
2022/07/11 00:48:05;;;;;;;6.20;2.42;;;;;;;;;;5112788;28;20075;-69
2022/07/11 00:50:31;;;;;;;7.30;2.63;;;;;;;;;;5113374;28;20039;-69
2022/07/11 00:52:57;;;;;;;5.07;2.80;;;;;;;;;;5113281;27;20488;-69
2022/07/11 00:55:23;;;;;;;5.55;3.00;;;;;;;;;;5112056;28;20372;-69
2022/07/11 00:57:52;;;;;;;6.05;2.80;;;;;;;;;;5113145;28;20093;-69
2022/07/11 01:00:18;;;;;;;5.85;3.78;;;;;;;;;;5111956;28;20043;-68
2022/07/11 01:02:44;;;;;;;7.63;3.70;;;;;;;;;;5112353;28;20041;-68
2022/07/11 01:05:10;;;;;;;6.43;3.55;;;;;;;;;;5112754;28;20059;-69
2022/07/11 01:07:36;;;;;;;6.60;3.60;;;;;;;;;;5113062;28;20099;-69
2022/07/11 01:10:02;;;;;;;8.65;4.65;;;;;;;;;;5111961;28;20130;-69
2022/07/11 01:12:28;;;;;;;11.23;4.00;;;;;;;;;;5112717;28;20039;-69
2022/07/11 01:14:56;;;;;;;8.75;4.50;;;;;;;;;;5112728;28;20032;-69
2022/07/11 01:17:22;;;;;;;8.50;4.47;;;;;;;;;;5112325;28;20039;-69
2022/07/11 01:19:48;;;;;;;10.43;4.38;;;;;;;;;;5112834;28;20040;-69
2022/07/11 01:22:15;;;;;;;9.70;4.97;;;;;;;;;;5112601;28;20118;-69
2022/07/11 01:24:42;;;;;;;8.57;4.60;;;;;;;;;;5111701;28;20092;-69
2022/07/11 01:27:08;;;;;;;8.35;4.25;;;;;;;;;;5128513;27;20067;-69
2022/07/11 01:29:33;;;;;;;6.88;4.20;;;;;;;;;;5131878;27;20108;-69
2022/07/11 01:31:59;;;;;;;11.50;4.90;;;;;;;;;;5130983;27;20043;-69
2022/07/11 01:34:25;;;;;;;9.75;4.72;;;;;;;;;;5131571;27;20366;-69
2022/07/11 01:36:51;;;;;;;12.07;5.15;;;;;;;;;;5131805;27;20122;-69
2022/07/11 01:39:18;;;;;;;14.73;4.57;;;;;;;;;;5131066;27;20478;-69
2022/07/11 01:41:44;;;;;;;15.43;5.00;;;;;;;;;;5131722;27;20041;-69
2022/07/11 01:44:10;;;;;;;6.70;4.00;;;;;;;;;;5131755;27;20035;-69
2022/07/11 01:46:35;;;;;;;12.88;4.63;;;;;;;;;;5130988;27;20639;-69
2022/07/11 01:49:01;;;;;;;9.10;4.80;;;;;;;;;;5131171;27;20035;-69
2022/07/11 01:51:28;;;;;;;9.45;4.70;;;;;;;;;;5131436;27;20081;-69
2022/07/11 01:53:55;;;;;;;12.40;4.50;;;;;;;;;;5129556;27;20394;-69
2022/07/11 01:56:22;;;;;;;10.55;4.40;;;;;;;;;;5131432;27;20478;-69
2022/07/11 01:58:48;;;;;;;8.77;4.40;;;;;;;;;;5131305;27;20047;-69
2022/07/11 02:01:14;;;;;;;10.55;4.80;;;;;;;;;;5131170;27;20350;-69
2022/07/11 02:03:40;;;;;;;12.15;4.70;;;;;;;;;;5131145;27;20047;-69
2022/07/11 02:06:06;;;;;;;11.88;4.43;;;;;;;;;;5131038;27;20055;-69
2022/07/11 02:08:32;;;;;;;9.80;4.45;;;;;;;;;;5130959;27;20757;-69
2022/07/11 02:10:58;;;;;;;6.57;4.25;;;;;;;;;;5130217;27;20050;-69
2022/07/11 02:13:24;;;;;;;10.38;4.60;;;;;;;;;;5131188;27;20458;-69
2022/07/11 02:15:51;;;;;;;15.05;4.97;;;;;;;;;;5131386;27;20035;-69
2022/07/11 02:18:17;;;;;;;7.82;4.80;;;;;;;;;;5130253;27;20042;-69
2022/07/11 02:20:48;;;;;;;8.93;5.00;;;;;;;;;;5131077;27;20039;-69
2022/07/11 02:23:15;;;;;;;9.23;4.50;;;;;;;;;;5130845;27;20043;-69
2022/07/11 02:25:41;;;;;;;9.45;4.70;;;;;;;;;;5123865;28;20361;-69
2022/07/11 02:28:08;;;;;;;7.45;4.88;;;;;;;;;;5110564;28;20040;-69
2022/07/11 02:30:34;;;;;;;8.80;4.35;;;;;;;;;;5110518;28;20042;-69
2022/07/11 02:33:00;;;;;;;7.68;4.80;;;;;;;;;;5109363;28;20047;-69
2022/07/11 02:35:26;;;;;;;8.55;4.53;;;;;;;;;;5110597;28;20657;-69
2022/07/11 02:37:53;;;;;;;7.80;4.45;;;;;;;;;;5110528;28;20042;-69
2022/07/11 02:40:19;;;;;;;9.57;4.80;;;;;;;;;;5109766;28;20680;-69
2022/07/11 02:42:45;;;;;;;8.88;4.47;;;;;;;;;;5110166;28;20144;-69
2022/07/11 02:45:11;;;;;;;9.57;4.90;;;;;;;;;;5110421;28;20031;-69
2022/07/11 02:47:39;;;;;;;7.32;4.10;;;;;;;;;;5109559;28;20039;-69
2022/07/11 02:50:08;;;;;;;9.15;4.32;;;;;;;;;;5110332;28;20040;-69
2022/07/11 02:52:34;;;;;;;9.45;4.57;;;;;;;;;;5110509;28;20422;-69
2022/07/11 02:55:00;;;;;;;10.18;4.30;;;;;;;;;;5108171;28;20405;-69
2022/07/11 02:57:26;;;;;;;8.35;3.85;;;;;;;;;;5110250;28;20092;-69
2022/07/11 02:59:52;;;;;;;9.23;4.30;;;;;;;;;;5108942;28;20389;-69
2022/07/11 03:02:18;;;;;;;8.27;4.15;;;;;;;;;;5109568;28;20375;-69
2022/07/11 03:04:44;;;;;;;10.75;4.38;;;;;;;;;;5109852;28;20060;-69
2022/07/11 03:07:10;;;;;;;12.55;4.32;;;;;;;;;;5109999;28;20040;-69
2022/07/11 03:09:37;;;;;;;7.68;4.20;;;;;;;;;;5109255;28;20269;-69
2022/07/11 03:12:04;;;;;;;6.93;4.20;;;;;;;;;;5109925;28;20134;-69
2022/07/11 03:14:30;;;;;;;5.68;4.32;;;;;;;;;;5110224;28;20044;-69
2022/07/11 03:16:56;;;;;;;7.35;4.25;;;;;;;;;;5109553;28;20386;-69
2022/07/11 03:19:22;;;;;;;6.72;3.58;;;;;;;;;;5111294;28;20027;-69
2022/07/11 03:21:48;;;;;;;8.70;4.43;;;;;;;;;;5113771;28;20523;-69
2022/07/11 03:24:14;;;;;;;11.40;4.70;;;;;;;;;;5111483;28;20481;-69
2022/07/11 03:26:40;;;;;;;8.98;4.68;;;;;;;;;;5127047;27;20039;-69
2022/07/11 03:29:07;;;;;;;8.93;3.97;;;;;;;;;;5132797;27;20118;-69
2022/07/11 03:31:33;;;;;;;6.00;4.60;;;;;;;;;;5133457;27;20544;-69
2022/07/11 03:33:59;;;;;;;12.85;4.45;;;;;;;;;;5134085;27;20552;-69
2022/07/11 03:36:26;;;;;;;10.93;4.90;;;;;;;;;;5134111;27;20039;-69
2022/07/11 03:38:51;;;;;;;9.40;4.53;;;;;;;;;;5133253;27;20039;-69
2022/07/11 03:41:17;;;;;;;9.95;4.60;;;;;;;;;;5133996;27;20088;-69
2022/07/11 03:43:43;;;;;;;12.60;5.45;;;;;;;;;;5133930;27;20050;-69
2022/07/11 03:46:10;;;;;;;11.38;5.13;;;;;;;;;;5133286;27;20050;-69
2022/07/11 03:48:36;;;;;;;12.25;5.60;;;;;;;;;;5133889;27;20122;-69
2022/07/11 03:51:02;;;;;;;14.30;5.13;;;;;;;;;;5133531;27;20042;-69
2022/07/11 03:53:28;;;;;;;9.98;4.88;;;;;;;;;;5131525;27;20042;-69
2022/07/11 03:55:54;;;;;;;10.98;4.68;;;;;;;;;;5132382;27;20043;-69
2022/07/11 03:58:20;;;;;;;8.18;4.60;;;;;;;;;;5133406;27;20240;-69
2022/07/11 04:00:46;;;;;;;11.75;5.13;;;;;;;;;;5132811;27;20119;-69
2022/07/11 04:03:12;;;;;;;8.38;4.50;;;;;;;;;;5134007;27;20035;-69
2022/07/11 04:05:38;;;;;;;8.13;4.78;;;;;;;;;;5132124;27;20057;-69
2022/07/11 04:08:04;;;;;;;11.05;5.00;;;;;;;;;;5131291;27;20043;-69
2022/07/11 04:10:30;;;;;;;7.40;4.43;;;;;;;;;;5133396;27;20042;-69
2022/07/11 04:12:56;;;;;;;7.07;4.80;;;;;;;;;;5133233;27;20481;-69
2022/07/11 04:15:22;;;;;;;7.32;4.47;;;;;;;;;;5132907;27;20492;-69
2022/07/11 04:17:48;;;;;;;9.57;4.88;;;;;;;;;;5133576;27;20040;-69
2022/07/11 04:20:14;;;;;;;6.47;4.53;;;;;;;;;;5133365;27;20039;-69
2022/07/11 04:22:40;;;;;;;8.23;3.90;;;;;;;;;;5132550;27;20273;-69
2022/07/11 04:25:06;;;;;;;7.78;4.13;;;;;;;;;;5133203;27;20438;-69
2022/07/11 04:27:32;;;;;;;6.47;3.72;;;;;;;;;;5112630;28;20051;-69
2022/07/11 04:29:58;;;;;;;6.10;3.60;;;;;;;;;;5111578;28;20208;-69
2022/07/11 04:32:24;;;;;;;8.32;3.78;;;;;;;;;;5112231;28;20552;-69
2022/07/11 04:34:50;;;;;;;6.85;3.33;;;;;;;;;;5112949;28;20040;-69
2022/07/11 04:37:16;;;;;;;12.55;7.65;;;;;;;;;;5112978;28;20036;-69
2022/07/11 04:39:45;;;;;;;5.43;3.10;;;;;;;;;;5121228;27;20160;-68
2022/07/11 04:42:11;;;;;;;7.97;4.13;;;;;;;;;;5113382;28;20402;-69
2022/07/11 04:44:37;;;;;;;5.63;4.18;;;;;;;;;;5112908;28;20414;-69
2022/07/11 04:47:03;;;;;;;5.00;3.25;;;;;;;;;;5113636;28;20040;-69
2022/07/11 04:49:29;;;;;;;4.97;2.92;;;;;;;;;;5113395;28;20039;-69
2022/07/11 04:51:56;;;;;;;7.93;3.03;;;;;;;;;;5112896;28;20041;-69
2022/07/11 04:54:23;;;;;;;8.60;3.42;;;;;;;;;;5113934;28;20043;-69
2022/07/11 04:56:49;;;;;;;3.95;2.33;;;;;;;;;;5114024;28;20370;-69
2022/07/11 04:59:15;;;;;;;4.45;2.55;;;;;;;;;;5112977;28;20120;-69
2022/07/11 05:01:41;;;;;;;5.57;2.38;;;;;;;;;;5113489;27;20075;-69
2022/07/11 05:04:07;;;;;;;6.75;2.33;;;;;;;;;;5113001;28;20500;-69
2022/07/11 05:06:33;;;;;;;5.25;2.63;;;;;;;;;;5112503;28;20048;-69
2022/07/11 05:09:00;;;;;;;3.60;1.95;;;;;;;;;;5113222;28;20043;-69
2022/07/11 05:11:26;;;;;;;3.85;2.25;;;;;;;;;;5112958;28;20035;-69
2022/07/11 05:13:52;;;;;;;4.05;1.92;;;;;;;;;;5112368;28;20032;-69
2022/07/11 05:16:18;;;;;;;4.57;2.10;;;;;;;;;;5112846;28;20043;-69
2022/07/11 05:18:44;;;;;;;2.22;1.70;;;;;;;;;;5112966;28;20035;-69
2022/07/11 05:21:10;;;;;;;3.55;2.03;;;;;;;;;;5112163;28;20047;-69
2022/07/11 05:23:36;;;;;;;3.15;2.28;;;;;;;;;;5112758;28;20035;-69
2022/07/11 05:26:04;;;;;;;2.33;1.52;;;;;;;;;;5119251;27;20039;-69
2022/07/11 05:28:30;;;;;;;4.03;1.70;;;;;;;;;;5132770;27;20074;-69
2022/07/11 05:30:56;;;;;;;3.67;2.03;;;;;;;;;;5133001;27;20035;-69
2022/07/11 05:33:22;;;;;;;2.53;1.70;;;;;;;;;;5133668;27;20035;-69
2022/07/11 05:35:48;;;;;;;3.50;1.60;;;;;;;;;;5133176;27;20041;-69
2022/07/11 05:38:14;;;;;;;2.72;1.60;;;;;;;;;;5132745;27;20118;-69
2022/07/11 05:40:40;;;;;;;4.63;1.90;;;;;;;;;;5133726;27;20392;-69
2022/07/11 05:43:07;;;;;;;1.90;1.58;;;;;;;;;;5132201;27;20039;-69
2022/07/11 05:45:34;;;;;;;4.72;1.50;;;;;;;;;;5132413;27;20070;-69
2022/07/11 05:48:00;;;;;;;4.38;2.22;;;;;;;;;;5133321;27;20378;-69
2022/07/11 05:50:26;;;;;;;4.10;2.10;;;;;;;;;;5133642;27;20474;-69
2022/07/11 05:52:52;;;;;;;4.22;1.77;;;;;;;;;;5132337;27;20043;-69
2022/07/11 05:55:18;;;;;;;3.97;1.85;;;;;;;;;;5133676;27;20067;-69
2022/07/11 05:57:44;;;;;;;3.55;1.58;;;;;;;;;;5132915;27;20078;-69
2022/07/11 06:00:11;;;;;;;5.05;2.40;;;;;;;;;;5131084;27;20096;-69
2022/07/11 06:02:37;;;;;;;5.20;2.15;;;;;;;;;;5148148;27;20034;-69
2022/07/11 06:05:03;;;;;;;3.53;1.58;;;;;;;;;;5137684;27;20137;-69
2022/07/11 06:10:14;;;;;;;3.78;1.75;;;;;;;;;;5149765;27;20402;-69
2022/07/11 06:12:41;;;;;;;4.63;1.42;;;;;;;;;;5132461;27;20047;-69
2022/07/11 06:15:07;;;;;;;3.65;2.13;;;;;;;;;;5126165;27;20043;-69
2022/07/11 06:17:34;;;;;;;4.57;1.55;;;;;;;;;;5124856;27;20044;-69
2022/07/11 06:20:00;;;;;;;1.70;1.40;;;;;;;;;;5115257;27;20459;-69
2022/07/11 06:22:26;;;;;;;4.25;1.88;;;;;;;;;;5140914;27;20066;-69
2022/07/11 06:24:52;;;;;;;2.20;1.50;;;;;;;;;;5151890;27;20077;-69
2022/07/11 06:27:19;;;;;;;3.55;1.63;;;;;;;;;;5112871;28;20074;-69
2022/07/11 06:29:45;;;;;;;4.65;1.40;;;;;;;;;;5129151;27;20418;-67
2022/07/11 06:32:11;;;;;;;3.33;1.23;;;;;;;;;;5153625;27;20046;-65
2022/07/11 06:34:37;;;;;;;1.85;1.20;;;;;;;;;;5136886;27;20035;-66
2022/07/11 06:37:03;;;;;;;4.75;1.25;;;;;;;;;;5106415;27;20039;-65
2022/07/11 06:39:29;;;;;;;1.25;0.85;;;;;;;;;;5126650;27;20501;-65
2022/07/11 06:41:55;;;;;;;2.63;1.10;;;;;;;;;;5140957;27;20097;-65
2022/07/11 06:44:21;;;;;;;2.50;0.90;;;;;;;;;;5150727;27;20041;-69
2022/07/11 06:46:48;;;;;;;1.30;1.08;;;;;;;;;;5136358;27;20031;-65
2022/07/11 06:49:14;;;;;;;1.73;1.00;;;;;;;;;;5128394;27;20042;-67
2022/07/11 06:51:40;;;;;;;2.10;0.95;;;;;;;;;;5151815;27;20039;-65
2022/07/11 06:54:06;;;;;;;2.70;1.02;;;;;;;;;;5135671;27;20050;-66
2022/07/11 06:56:32;;;;;;;2.25;0.80;;;;;;;;;;5132904;27;20111;-66
2022/07/11 06:58:58;;;;;;;2.72;1.30;;;;;;;;;;5136924;27;20043;-65
2022/07/11 07:01:25;;;;;;;1.85;0.90;;;;;;;;;;5138813;27;20043;-65
2022/07/11 07:03:51;;;;;;;1.65;1.10;;;;;;;;;;5141688;27;20390;-64
2022/07/11 07:06:17;;;;;;;2.60;1.20;;;;;;;;;;5137410;27;20655;-66
2022/07/11 07:08:43;;;;;;;2.35;1.25;;;;;;;;;;5132387;27;20040;-67
2022/07/11 07:11:09;;;;;;;5.38;1.30;;;;;;;;;;5151060;27;20127;-67
2022/07/11 07:13:35;;;;;;;2.53;1.23;;;;;;;;;;5146223;27;20039;-67
2022/07/11 07:16:01;;;;;;;2.38;1.42;;;;;;;;;;5134127;27;20039;-66
2022/07/11 07:18:27;;;;;;;1.98;1.20;;;;;;;;;;5148921;27;20373;-66
2022/07/11 07:20:53;;;;;;;2.00;0.88;;;;;;;;;;5142061;27;20389;-66
2022/07/11 07:23:19;;;;;;;2.45;1.23;;;;;;;;;;5131030;27;20050;-66
2022/07/11 07:25:45;;;;;;;3.45;1.17;;;;;;;;;;5129409;27;20427;-66
2022/07/11 07:28:12;;;;;;;3.95;0.90;;;;;;;;;;5132998;27;20047;-67
2022/07/11 07:30:39;;;;;;;3.80;1.40;;;;;;;;;;5142669;27;20058;-68
2022/07/11 07:33:05;;;;;;;2.78;1.00;;;;;;;;;;5117973;27;20093;-67
2022/07/11 07:35:31;;;;;;;3.70;1.40;;;;;;;;;;5137232;27;20039;-67
2022/07/11 07:37:57;;;;;;;2.65;1.20;;;;;;;;;;5133521;27;20155;-68
2022/07/11 07:40:23;;;;;;;2.92;1.10;;;;;;;;;;5128799;27;20047;-68
2022/07/11 07:42:49;;;;;;;1.00;0.63;;;;;;;;;;5137320;27;20070;-69
2022/07/11 07:45:15;;;;;;;1.25;0.70;;;;;;;;;;5127844;27;20035;-66
2022/07/11 07:47:41;;;;;;;3.90;1.23;;;;;;;;;;5129574;27;20054;-68
2022/07/11 07:50:08;;;;;;;2.88;0.75;;;;;;;;;;5146608;27;20037;-67
2022/07/11 07:52:34;;;;;;;2.72;0.85;;;;;;;;;;5120498;27;20046;-65
2022/07/11 07:55:00;;;;;;;2.03;0.82;;;;;;;;;;5133919;27;20421;-65
2022/07/11 07:57:26;;;;;;;1.42;0.65;;;;;;;;;;5140403;27;20095;-63
2022/07/11 08:01:34;;;;;;;1.08;0.80;;;;;;;;;;5133079;27;20111;-66
2022/07/11 08:02:38;;;;;;;1.25;0.63;;;;;;;;;;5143019;27;20047;-64
2022/07/11 08:05:04;;;;;;;1.58;0.70;;;;;;;;;;5135949;27;20050;-65
2022/07/11 08:07:30;;;;;;;0.70;0.70;;;;;;;;;;5142364;27;20087;-68
2022/07/11 08:09:56;;;;;;;7.78;1.13;;;;;;;;;;5153214;27;20080;-67
2022/07/11 08:12:22;;;;;;;0.70;0.55;;;;;;;;;;5153441;27;20049;-67
2022/07/11 08:14:48;;;;;;;0.50;0.50;;;;;;;;;;5147596;27;20027;-67
2022/07/11 08:17:14;;;;;;;0.73;0.55;;;;;;;;;;5131468;27;20070;-66
2022/07/11 08:19:40;;;;;;;0.75;0.50;;;;;;;;;;5150868;27;20047;-67
2022/07/11 08:22:06;;;;;;;0.55;0.38;;;;;;;;;;5131134;27;20126;-66
2022/07/11 08:24:32;;;;;;;0.30;0.30;;;;;;;;;;5131765;27;20070;-63
2022/07/11 08:26:59;;;;;;;0.43;0.38;;;;;;;;;;5132780;27;20047;-63
2022/07/11 08:29:25;;;;;;;0.65;0.40;;;;;;;;;;5134768;27;20081;-64
2022/07/11 08:31:51;;;;;;;0.30;0.30;;;;;;;;;;5133200;27;20066;-64
2022/07/11 08:34:18;;;;;;;1.35;0.22;;;;;;;;;;5129847;27;20039;-65
2022/07/11 08:36:44;;;;;;;1.38;0.30;;;;;;;;;;5127872;27;20023;-64
2022/07/11 08:39:10;;;;;;;0.65;0.32;;;;;;;;;;5141800;27;20134;-65
2022/07/11 08:41:39;;;;;;;0.70;0.35;;;;;;;;;;5140728;27;20517;-63
2022/07/11 08:44:06;;;;;;;0.32;0.30;;;;;;;;;;5130955;27;20043;-64
2022/07/11 08:46:32;;;;;;;0.40;0.40;;;;;;;;;;5139113;27;20043;-64
2022/07/11 08:49:00;;;;;;;1.55;0.40;;;;;;;;;;5141130;27;20046;-64
2022/07/11 08:51:27;;;;;;;0.68;0.30;;;;;;;;;;5136003;27;20448;-65
2022/07/11 08:53:53;;;;;;;0.85;0.50;;;;;;;;;;5129621;27;20100;-66
2022/07/11 08:56:21;;;;;;;0.95;0.40;;;;;;;;;;5131329;27;20039;-64
2022/07/11 08:58:48;;;;;;;0.45;0.20;;;;;;;;;;5144935;27;20062;-65
2022/07/11 09:01:18;;;;;;;0.43;0.40;;;;;;;;;;5112124;27;20048;-65
2022/07/11 09:03:44;;;;;;;0.85;0.30;;;;;;;;;;5137187;27;20072;-65
2022/07/11 09:06:11;;;;;;;0.30;0.30;;;;;;;;;;5144716;27;20420;-64
2022/07/11 09:08:38;;;;;;;0.75;0.30;;;;;;;;;;5123123;27;20542;-65
2022/07/11 09:11:06;;;;;;;0.30;0.30;;;;;;;;;;5128331;27;20134;-64
2022/07/11 09:13:32;;;;;;;1.23;0.43;;;;;;;;;;5131931;27;20046;-66
2022/07/11 09:16:03;;;;;;;1.30;0.80;;;;;;;;;;5127013;27;20032;-64
2022/07/11 09:18:30;;;;;;;2.15;0.55;;;;;;;;;;5128293;27;20679;-63
2022/07/11 09:26:42;;;;;;;0.40;0.25;;;;;;;;;;5139532;27;20047;-64
2022/07/11 09:29:13;;;;;;;0.30;0.20;;;;;;;;;;5145850;27;20146;-64
2022/07/11 09:31:40;;;;;;;2.15;0.30;;;;;;;;;;5134358;27;20040;-64
2022/07/11 09:34:08;;;;;;;0.75;0.40;;;;;;;;;;5128525;27;20039;-64
2022/07/11 09:36:45;;;;;;;0.30;0.28;;;;;;;;;;5122525;27;20051;-64
2022/07/11 09:39:13;;;;;;;0.65;0.30;;;;;;;;;;5134798;27;20087;-64
2022/07/11 09:41:39;;;;;;;1.90;0.40;;;;;;;;;;5138833;27;20090;-64
2022/07/11 09:44:33;;;;;;;1.58;0.40;;;;;;;;;;5132251;27;20431;-65
2022/07/11 09:47:00;;;;;;;0.28;0.20;;;;;;;;;;5125428;27;20434;-64
2022/07/11 09:49:32;;;;;;;1.05;0.30;;;;;;;;;;5127407;27;20034;-64
2022/07/11 09:52:17;;;;;;;0.85;0.40;;;;;;;;;;5129988;27;20436;-66
2022/07/11 09:55:00;;;;;;;0.40;0.35;;;;;;;;;;5129089;27;20046;-66
2022/07/11 09:57:30;;;;;;;1.85;0.40;;;;;;;;;;5123230;27;20533;-66
2022/07/11 09:59:56;;;;;;;0.93;0.40;;;;;;;;;;5115185;27;20081;-65
2022/07/11 10:02:22;;;;;;;0.40;0.32;;;;;;;;;;5128628;27;20057;-65
2022/07/11 10:04:50;;;;;;;0.20;0.20;;;;;;;;;;5126890;27;20056;-64
2022/07/11 10:07:16;;;;;;;1.23;0.50;;;;;;;;;;5124474;27;20082;-65
2022/07/11 10:09:43;;;;;;;1.08;0.25;;;;;;;;;;5120359;27;20050;-64
2022/07/11 10:12:09;;;;;;;1.02;0.60;;;;;;;;;;5122542;27;20481;-63
2022/07/11 10:14:39;;;;;;;1.23;0.30;;;;;;;;;;5125746;27;20030;-65
2022/07/11 10:17:24;;;;;;;0.63;0.30;;;;;;;;;;5114929;27;20090;-65
2022/07/11 10:20:13;;;;;;;0.25;0.25;;;;;;;;;;5135075;27;20096;-65
2022/07/11 10:22:54;;;;;;;0.50;0.40;;;;;;;;;;5120081;27;20045;-64
2022/07/11 10:25:20;;;;;;;0.40;0.40;;;;;;;;;;5125033;27;20059;-65
2022/07/11 10:27:46;;;;;;;1.00;0.55;;;;;;;;;;5130469;27;20035;-64
2022/07/11 10:30:12;;;;;;;2.25;0.70;;;;;;;;;;5128172;27;20131;-64
2022/07/11 10:32:59;;;;;;;2.03;0.40;;;;;;;;;;5122954;27;20039;-64
2022/07/11 10:35:29;;;;;;;2.10;0.25;;;;;;;;;;5154097;27;20104;-64
2022/07/11 10:37:55;;;;;;;0.65;0.30;;;;;;;;;;5158099;27;21790;-65
2022/07/11 10:40:39;;;;;;;0.85;0.25;;;;;;;;;;5156829;27;20077;-65
2022/07/11 10:43:05;;;;;;;0.77;0.20;;;;;;;;;;5150129;27;20038;-64
2022/07/11 10:45:49;;;;;;;0.65;0.30;;;;;;;;;;5120750;27;20032;-64
2022/07/11 10:48:16;;;;;;;0.95;0.40;;;;;;;;;;5148913;27;20062;-64
2022/07/11 10:50:44;;;;;;;0.85;0.20;;;;;;;;;;5150689;27;20070;-64
2022/07/11 10:53:11;;;;;;;0.35;0.15;;;;;;;;;;5157629;27;20045;-64
2022/07/11 10:55:37;;;;;;;1.27;0.30;;;;;;;;;;5156375;27;20073;-64
2022/07/11 10:58:09;;;;;;;0.60;0.20;;;;;;;;;;5136664;27;20036;-64
2022/07/11 11:00:35;;;;;;;0.63;0.20;;;;;;;;;;5156389;27;20035;-64
2022/07/11 11:03:01;;;;;;;0.45;0.25;;;;;;;;;;5157317;27;20046;-65
2022/07/11 11:05:42;;;;;;;0.77;0.30;;;;;;;;;;5156262;27;20090;-64
2022/07/11 11:08:28;;;;;;;0.55;0.35;;;;;;;;;;5158012;27;20369;-64
2022/07/11 11:10:55;;;;;;;0.50;0.30;;;;;;;;;;5128079;27;20038;-64
2022/07/11 11:13:21;;;;;;;2.30;0.35;;;;;;;;;;5124250;27;20083;-64
2022/07/11 11:15:49;;;;;;;1.10;0.22;;;;;;;;;;5143151;27;20034;-64
2022/07/11 11:18:34;;;;;;;1.17;0.40;;;;;;;;;;5127653;27;20043;-65
2022/07/11 11:21:00;;;;;;;0.20;0.20;;;;;;;;;;5133792;27;20418;-64
2022/07/11 11:23:30;;;;;;;0.40;0.40;;;;;;;;;;5127532;27;20082;-64
2022/07/11 11:26:06;;;;;;;1.70;0.40;;;;;;;;;;5120902;27;20042;-64
2022/07/11 11:28:32;;;;;;;1.10;0.50;;;;;;;;;;5130371;27;20078;-64
2022/07/11 11:31:00;;;;;;;0.88;0.50;;;;;;;;;;5133254;27;20073;-64
2022/07/11 11:33:26;;;;;;;3.80;0.60;;;;;;;;;;5140283;27;20074;-64
2022/07/11 11:36:02;;;;;;;0.60;0.30;;;;;;;;;;5134264;27;20036;-65
2022/07/11 11:38:29;;;;;;;0.85;0.30;;;;;;;;;;5135323;27;20077;-64
2022/07/11 11:40:56;;;;;;;2.88;0.30;;;;;;;;;;5127367;27;20035;-65
2022/07/11 11:43:23;;;;;;;0.88;0.30;;;;;;;;;;5121203;27;20088;-64
2022/07/11 11:45:49;;;;;;;0.25;0.25;;;;;;;;;;5136141;27;20035;-64
2022/07/11 11:48:33;;;;;;;0.20;0.20;;;;;;;;;;5120804;27;20489;-65
2022/07/11 11:51:03;;;;;;;0.60;0.60;;;;;;;;;;5137642;27;20559;-65
2022/07/11 11:53:29;;;;;;;1.83;0.40;;;;;;;;;;5147165;27;20031;-65
2022/07/11 11:55:55;;;;;;;0.85;0.30;;;;;;;;;;5135409;27;20034;-65
2022/07/11 11:58:21;;;;;;;0.55;0.30;;;;;;;;;;5127556;27;20063;-64
2022/07/11 12:00:55;;;;;;;0.40;0.38;;;;;;;;;;5131148;27;20077;-64
2022/07/11 12:03:21;;;;;;;0.73;0.30;;;;;;;;;;5131465;27;20051;-64
2022/07/11 12:05:56;;;;;;;1.30;0.40;;;;;;;;;;5131313;27;20172;-64
2022/07/11 12:08:26;;;;;;;0.60;0.30;;;;;;;;;;5134921;27;20810;-67
2022/07/11 12:10:56;;;;;;;1.67;0.50;;;;;;;;;;5129603;27;20047;-66
2022/07/11 12:13:22;;;;;;;0.40;0.40;;;;;;;;;;5136449;27;20032;-66
2022/07/11 12:18:39;;;;;;;1.40;0.63;;;;;;;;;;5146415;27;20043;-66
2022/07/11 12:21:12;;;;;;;2.35;0.47;;;;;;;;;;5129826;27;20038;-66
2022/07/11 12:23:38;;;;;;;1.48;0.60;;;;;;;;;;5131267;27;20450;-66
2022/07/11 12:26:04;;;;;;;1.25;0.40;;;;;;;;;;5137834;27;20043;-64
2022/07/11 12:28:30;;;;;;;0.45;0.35;;;;;;;;;;5136214;27;20473;-64
2022/07/11 12:30:56;;;;;;;0.80;0.38;;;;;;;;;;5146566;27;20121;-65
2022/07/11 12:33:23;;;;;;;2.25;0.50;;;;;;;;;;5149598;27;20100;-65
2022/07/11 12:36:03;;;;;;;0.93;0.50;;;;;;;;;;5147385;27;20045;-65
2022/07/11 12:38:51;;;;;;;1.10;0.50;;;;;;;;;;5143616;27;20035;-66
2022/07/11 12:41:17;;;;;;;0.32;0.28;;;;;;;;;;5141002;27;20062;-65
2022/07/11 12:46:36;;;;;;;3.95;0.47;;;;;;;;;;5143813;27;20436;-65
2022/07/11 12:49:03;;;;;;;0.80;0.40;;;;;;;;;;5153000;27;20047;-64
2022/07/11 12:51:41;;;;;;;3.60;0.82;;;;;;;;;;5141113;27;20046;-64
2022/07/11 12:54:09;;;;;;;0.40;0.40;;;;;;;;;;5146014;27;20035;-65
2022/07/11 12:56:35;;;;;;;2.45;0.40;;;;;;;;;;5143535;27;20085;-65
2022/07/11 12:59:02;;;;;;;1.17;0.40;;;;;;;;;;5142137;27;20552;-65
2022/07/11 13:01:29;;;;;;;4.18;0.57;;;;;;;;;;5148550;27;20473;-66
2022/07/11 13:03:56;;;;;;;1.52;0.40;;;;;;;;;;5119065;27;20052;-66
2022/07/11 13:09:08;;;;;;;0.55;0.40;;;;;;;;;;5127652;27;20039;-64
2022/07/11 13:11:35;;;;;;;2.13;0.40;;;;;;;;;;5124068;27;20046;-65
2022/07/11 13:14:01;;;;;;;0.82;0.32;;;;;;;;;;5137070;27;20038;-66
2022/07/11 13:16:29;;;;;;;1.15;0.30;;;;;;;;;;5133421;27;20061;-66
2022/07/11 13:18:55;;;;;;;1.65;0.35;;;;;;;;;;5118133;27;20028;-65
2022/07/11 13:21:21;;;;;;;0.77;0.35;;;;;;;;;;5123323;27;20076;-64
2022/07/11 13:23:47;;;;;;;1.70;0.38;;;;;;;;;;5122920;27;20476;-65
2022/07/11 13:26:14;;;;;;;1.35;0.30;;;;;;;;;;5122595;27;20095;-65
2022/07/11 13:28:40;;;;;;;0.95;0.40;;;;;;;;;;5138123;27;20146;-66
2022/07/11 13:31:06;;;;;;;0.52;0.30;;;;;;;;;;5134251;27;20044;-65
2022/07/11 13:33:33;;;;;;;1.60;0.22;;;;;;;;;;5123547;27;20531;-65
2022/07/11 13:35:59;;;;;;;0.22;0.22;;;;;;;;;;5119066;27;20051;-64
2022/07/11 13:38:26;;;;;;;0.95;0.40;;;;;;;;;;5117378;27;20534;-66
2022/07/11 13:40:52;;;;;;;0.90;0.32;;;;;;;;;;5124672;27;20047;-65
2022/07/11 13:43:19;;;;;;;0.65;0.50;;;;;;;;;;5120615;27;20043;-64
2022/07/11 13:45:47;;;;;;;1.67;0.40;;;;;;;;;;5116359;27;20053;-66
2022/07/11 13:48:13;;;;;;;0.47;0.25;;;;;;;;;;5128651;27;20350;-65
2022/07/11 13:50:40;;;;;;;1.10;0.40;;;;;;;;;;5122877;27;20441;-66
2022/07/11 13:53:06;;;;;;;0.22;0.20;;;;;;;;;;5128300;27;20631;-66
2022/07/11 13:55:32;;;;;;;1.35;0.60;;;;;;;;;;5125357;27;20038;-66
2022/07/11 13:58:00;;;;;;;0.25;0.20;;;;;;;;;;5128340;27;20390;-67
2022/07/11 14:00:28;;;;;;;0.32;0.30;;;;;;;;;;5128353;27;20042;-67
2022/07/11 14:02:54;;;;;;;0.80;0.30;;;;;;;;;;5122746;27;20082;-67
2022/07/11 14:05:20;;;;;;;0.38;0.30;;;;;;;;;;5125907;27;20781;-66
2022/07/11 14:07:47;;;;;;;1.50;0.43;;;;;;;;;;5131775;27;20069;-66
2022/07/11 14:10:13;;;;;;;0.55;0.55;;;;;;;;;;5126967;27;20039;-66
2022/07/11 14:12:40;;;;;;;1.75;0.52;;;;;;;;;;5133557;27;20039;-67
2022/07/11 14:15:07;;;;;;;2.67;0.40;;;;;;;;;;5132669;27;20035;-66
2022/07/11 14:17:34;;;;;;;3.92;0.47;;;;;;;;;;5124656;27;20097;-66
2022/07/11 14:20:00;;;;;;;1.00;0.30;;;;;;;;;;5135549;27;20066;-66
2022/07/11 14:22:26;;;;;;;0.20;0.20;;;;;;;;;;5134193;27;20713;-67
2022/07/11 14:24:52;;;;;;;2.70;0.40;;;;;;;;;;5130411;27;20378;-67
2022/07/11 14:27:21;;;;;;;1.95;0.80;;;;;;;;;;5134816;27;20172;-67
2022/07/11 14:29:47;;;;;;;0.65;0.25;;;;;;;;;;5123902;27;20070;-67
2022/07/11 14:32:16;;;;;;;0.43;0.43;;;;;;;;;;5138002;27;20047;-68
2022/07/11 14:34:44;;;;;;;0.75;0.47;;;;;;;;;;5148112;27;20128;-67
2022/07/11 14:37:10;;;;;;;0.85;0.40;;;;;;;;;;5144912;27;20034;-67
2022/07/11 14:39:37;;;;;;;0.82;0.40;;;;;;;;;;5132946;27;20031;-67
2022/07/11 14:42:03;;;;;;;0.40;0.40;;;;;;;;;;5151643;27;20072;-68
2022/07/11 14:44:30;;;;;;;6.13;0.60;;;;;;;;;;5134157;27;20531;-67
2022/07/11 14:46:56;;;;;;;0.75;0.60;;;;;;;;;;5152697;27;20066;-66
2022/07/11 14:49:23;;;;;;;0.32;0.30;;;;;;;;;;5126931;28;20050;-65
2022/07/11 14:51:49;;;;;;;0.82;0.50;;;;;;;;;;5124120;27;20031;-65
2022/07/11 14:54:16;;;;;;;3.60;0.60;;;;;;;;;;5121636;27;20054;-65
2022/07/11 14:56:43;;;;;;;1.27;0.50;;;;;;;;;;5120903;28;20080;-67
2022/07/11 14:59:10;;;;;;;0.75;0.40;;;;;;;;;;5114425;28;20035;-69
2022/07/11 15:01:37;;;;;;;1.15;0.50;;;;;;;;;;5111436;28;20046;-69